Airfield :
LOGIN :

Register | Disclaimer

   EN    FR    IT 

 










Legend :    VFR   Marginal VFR   IFR   Intensive IFR   Very Intensive IFR
Visi :
Ceiling :
>= 8 km
>= 3000ft
5 to 8 km
1000 to 3000 ft
1500m to 5 km
500 to 1000 ft
800 to 1500m
200 to 500 ft
< 800m
< 200 ft
Symbols :   Thunderstorms  Fog  Heavy snow  Heavy precipitations  Wind > 20 kt
SIGMETs :     Misc.  Thunderstorms  Icing  Turbulence  Mountain Waves  Volcanic Ashes






- Airport Elevation : 16 ft
- IATA code : LPX


EVLA - Liepaja

CURRENT METAR :
  • 070150Z AUTO 20012KT 4400 -RA BKN004/// OVC013/// 06/06 Q0997

EXPIRED METARs :
  • 070120Z AUTO 20014KT 5000 -RA BKN005/// OVC013/// 06/06 Q0997
  • 070050Z AUTO 20011KT 9999 -RA BKN005/// OVC013/// 06/06 Q0997
  • 070020Z AUTO 20012KT 6000 -RA BKN004/// OVC011/// 06/06 Q0997
  • 062350Z AUTO 20013KT 3500 -RA BKN003/// BKN005/// OVC008/// 06/06 Q0998
  • 062320Z AUTO 20014KT 3600 -RA SCT003/// BKN005/// OVC008/// 06/06 Q0998

TAF TAF EVLA
Valid from the 07 at 00:00 until the 08 at 00:00 UTC


062321Z 0700/0724 22018KT 6000 OVC005
TEMPO 0700/0709 4000 -RA BKN004
TEMPO 0709/0724 23020G30KT
BECMG 0715/0717 BKN010 OVC015



MET'MAP, your aeronautical weather chart ! - Copyright ORBIFLY December 2007 - Disclaimer

ORBIFLY MET'MAP TEAM :

Programming & Development : Alexandra Zaïnal
Concept & original design : Baudouin d'Aumeries
Assistance for programming : Marc-Olivier Méhu
Technical & hardware support : Manuel Goepfert

Contact : metmap@orbifly.com




SOURCES & CREDITS :

   NOAA